Time;durP1;ratioP1;P1;durP2;ratioP2;P2;SDS_P1;SDS_P2;PMS_P1;PMS_P2;Temp;Humidity;BMP_temperature;BMP_pressure;BME280_temperature;BME280_humidity;BME280_pressure;Samples;Min_cycle;Max_cycle;Signal;HPM_P1;HPM_P2
2023/08/04 00:01:57;;;;;;;3.10;2.30;;;23.90;99.90;;;;;;6184693;23;20440;-73
2023/08/04 00:04:22;;;;;;;4.40;2.50;;;23.90;99.90;;;;;;6184543;23;20132;-73
2023/08/04 00:06:48;;;;;;;4.03;2.58;;;23.90;99.90;;;;;;6183029;23;20015;-73
2023/08/04 00:09:14;;;;;;;2.30;2.10;;;23.80;99.90;;;;;;6184360;23;20001;-73
2023/08/04 00:11:39;;;;;;;6.07;2.50;;;23.80;99.90;;;;;;6184582;23;20425;-73
2023/08/04 00:14:05;;;;;;;4.10;2.45;;;23.80;99.90;;;;;;6184528;23;20021;-73
2023/08/04 00:16:32;;;;;;;4.72;3.03;;;23.70;99.90;;;;;;6183060;23;20005;-73
2023/08/04 00:18:58;;;;;;;3.03;2.42;;;23.70;99.90;;;;;;6182767;23;20055;-73
2023/08/04 00:21:23;;;;;;;3.42;2.20;;;23.70;99.90;;;;;;6184185;23;20001;-73
2023/08/04 00:23:56;;;;;;;2.53;2.30;;;23.70;99.90;;;;;;6181926;23;20012;-74
2023/08/04 00:26:21;;;;;;;3.05;2.30;;;23.70;99.90;;;;;;6183697;23;20001;-73
2023/08/04 00:28:47;;;;;;;7.35;2.40;;;23.70;99.90;;;;;;6183774;23;20076;-73
2023/08/04 00:31:14;;;;;;;7.90;2.60;;;23.80;99.90;;;;;;6184101;23;20459;-73
2023/08/04 00:33:39;;;;;;;7.90;2.33;;;23.80;99.90;;;;;;6183937;23;20001;-73
2023/08/04 00:36:05;;;;;;;7.18;2.88;;;23.80;99.90;;;;;;6184757;23;20002;-73
2023/08/04 00:38:31;;;;;;;3.08;2.53;;;23.80;99.90;;;;;;6184293;23;19997;-73
2023/08/04 00:40:57;;;;;;;2.78;2.20;;;23.70;99.90;;;;;;6184475;23;20425;-73
2023/08/04 00:43:22;;;;;;;2.70;2.50;;;23.70;99.90;;;;;;6182552;23;20009;-73
2023/08/04 00:45:48;;;;;;;2.63;2.42;;;23.60;99.90;;;;;;6184561;23;20360;-73
2023/08/04 00:48:14;;;;;;;3.42;2.20;;;23.60;99.90;;;;;;6184358;23;20001;-73
2023/08/04 00:50:40;;;;;;;5.30;2.45;;;23.50;99.90;;;;;;6182742;23;20499;-73
2023/08/04 00:53:07;;;;;;;2.30;2.10;;;23.50;99.90;;;;;;6183959;23;20088;-73
2023/08/04 00:55:34;;;;;;;6.82;2.58;;;23.50;99.90;;;;;;6184454;23;20005;-73
2023/08/04 00:58:00;;;;;;;3.78;2.10;;;23.50;99.90;;;;;;6182430;23;20004;-73
2023/08/04 01:00:25;;;;;;;4.80;2.15;;;23.40;99.90;;;;;;6184431;23;20104;-72
2023/08/04 01:02:51;;;;;;;3.97;3.10;;;23.40;99.90;;;;;;6184196;23;20008;-73
2023/08/04 01:05:17;;;;;;;6.00;3.20;;;23.30;99.90;;;;;;6184393;23;20432;-73
2023/08/04 01:08:09;;;;;;;7.50;3.03;;;23.30;99.90;;;;;;6184528;23;20001;-73
2023/08/04 01:10:57;;;;;;;3.27;2.77;;;23.30;99.90;;;;;;6184850;23;20033;-72
2023/08/04 01:13:24;;;;;;;2.80;2.35;;;23.20;99.90;;;;;;6183866;23;20036;-72
2023/08/04 01:15:52;;;;;;;4.68;2.67;;;23.20;99.90;;;;;;6184187;23;20456;-73
2023/08/04 01:18:24;;;;;;;3.10;2.60;;;23.20;99.90;;;;;;6184096;23;19997;-73
2023/08/04 01:20:50;;;;;;;3.25;2.35;;;23.10;99.90;;;;;;6182643;23;20076;-73
2023/08/04 01:23:16;;;;;;;3.35;2.67;;;23.20;99.90;;;;;;6183658;23;20007;-73
2023/08/04 01:25:43;;;;;;;3.75;2.35;;;23.20;99.90;;;;;;6183590;23;20005;-73
2023/08/04 01:28:14;;;;;;;2.40;2.20;;;23.10;99.90;;;;;;6183526;23;20041;-73
2023/08/04 01:30:43;;;;;;;3.63;2.67;;;23.20;99.90;;;;;;6183694;23;20634;-73
2023/08/04 01:33:09;;;;;;;2.75;2.28;;;23.10;99.90;;;;;;6183432;23;20005;-73
2023/08/04 01:35:38;;;;;;;3.55;2.70;;;23.10;99.90;;;;;;6183987;23;20383;-73
2023/08/04 01:38:04;;;;;;;5.00;2.35;;;23.10;99.90;;;;;;6183356;23;20097;-73
2023/08/04 01:40:29;;;;;;;2.00;1.90;;;23.10;99.90;;;;;;6184819;23;20418;-73
2023/08/04 01:42:55;;;;;;;2.83;2.30;;;23.10;99.90;;;;;;6185460;23;20001;-73
2023/08/04 01:45:21;;;;;;;4.80;2.10;;;23.10;99.90;;;;;;6185429;23;20001;-73
2023/08/04 01:47:48;;;;;;;5.07;2.30;;;23.10;99.90;;;;;;6185859;23;20016;-73
2023/08/04 01:50:13;;;;;;;5.82;2.25;;;23.10;99.90;;;;;;6185694;23;20560;-73
2023/08/04 01:52:39;;;;;;;6.70;1.98;;;23.00;99.90;;;;;;6185836;23;20012;-73
2023/08/04 01:55:05;;;;;;;3.20;2.17;;;23.10;99.90;;;;;;6185805;23;20322;-73
2023/08/04 01:57:31;;;;;;;4.45;2.30;;;23.10;99.90;;;;;;6186150;23;20001;-73
2023/08/04 01:59:57;;;;;;;7.50;2.17;;;23.10;99.90;;;;;;6185939;23;20008;-73
2023/08/04 02:02:22;;;;;;;3.00;2.10;;;22.90;99.90;;;;;;6186092;23;20467;-73
2023/08/04 02:04:48;;;;;;;2.95;2.30;;;22.90;99.90;;;;;;6185581;23;20083;-72
2023/08/04 02:07:14;;;;;;;5.10;2.33;;;22.80;99.90;;;;;;6185986;23;20032;-73
2023/08/04 02:09:39;;;;;;;5.32;2.50;;;22.80;99.90;;;;;;6185693;23;20451;-73
2023/08/04 02:12:05;;;;;;;4.97;2.33;;;22.80;99.90;;;;;;6185699;23;20005;-73
2023/08/04 02:14:32;;;;;;;2.63;2.20;;;22.80;99.90;;;;;;6185745;23;20020;-73
2023/08/04 02:16:57;;;;;;;2.45;2.22;;;22.70;99.90;;;;;;6184133;23;20012;-73
2023/08/04 02:19:23;;;;;;;2.33;1.90;;;22.80;99.90;;;;;;6185378;23;20001;-73
2023/08/04 02:21:49;;;;;;;4.47;2.25;;;22.70;99.90;;;;;;6185742;23;19998;-73
2023/08/04 02:24:15;;;;;;;6.30;2.13;;;22.70;99.90;;;;;;6183506;23;20076;-73
2023/08/04 02:26:44;;;;;;;4.43;2.13;;;22.70;99.90;;;;;;6185528;23;20079;-73
2023/08/04 02:29:11;;;;;;;3.05;2.00;;;22.80;99.90;;;;;;6185478;23;20001;-73
2023/08/04 02:31:37;;;;;;;4.40;2.70;;;22.80;99.90;;;;;;6185716;23;20036;-73
2023/08/04 02:34:02;;;;;;;4.13;2.10;;;22.70;99.90;;;;;;6185040;23;20001;-73
2023/08/04 02:36:28;;;;;;;5.25;2.10;;;22.60;99.90;;;;;;6185604;23;20029;-73
2023/08/04 02:38:54;;;;;;;2.75;2.10;;;22.70;99.90;;;;;;6185074;23;19997;-73
2023/08/04 02:41:20;;;;;;;2.92;1.90;;;22.60;99.90;;;;;;6185519;23;20004;-73
2023/08/04 02:43:45;;;;;;;5.45;1.70;;;22.50;99.90;;;;;;6185158;23;20035;-73
2023/08/04 02:46:12;;;;;;;3.15;2.53;;;22.50;99.90;;;;;;6183806;23;20044;-73
2023/08/04 02:48:38;;;;;;;2.60;2.40;;;22.50;99.90;;;;;;6183846;23;20009;-73
2023/08/04 02:51:06;;;;;;;2.20;2.00;;;22.40;99.90;;;;;;6185104;23;20008;-73
2023/08/04 02:53:34;;;;;;;3.65;2.13;;;22.40;99.90;;;;;;6183469;23;20456;-73
2023/08/04 02:55:59;;;;;;;4.25;2.47;;;22.40;99.90;;;;;;6185351;23;19993;-73
2023/08/04 02:58:26;;;;;;;4.20;2.30;;;22.40;99.90;;;;;;6185385;23;20008;-73
2023/08/04 03:00:53;;;;;;;2.42;1.95;;;22.40;99.90;;;;;;6185450;23;19997;-73
2023/08/04 03:03:19;;;;;;;6.07;2.50;;;22.30;99.90;;;;;;6185186;23;20451;-73
2023/08/04 03:05:46;;;;;;;3.78;2.10;;;22.40;99.90;;;;;;6185278;23;20376;-73
2023/08/04 03:08:12;;;;;;;3.03;1.90;;;22.40;99.90;;;;;;6184998;23;20559;-73
2023/08/04 03:10:41;;;;;;;3.20;2.20;;;22.40;99.90;;;;;;6185246;23;20001;-73
2023/08/04 03:13:10;;;;;;;4.15;2.10;;;22.30;99.90;;;;;;6184645;23;20037;-73
2023/08/04 03:15:36;;;;;;;2.20;1.77;;;22.30;99.90;;;;;;6183753;23;20001;-73
2023/08/04 03:18:05;;;;;;;2.03;1.88;;;22.20;99.90;;;;;;6185188;23;20025;-73
2023/08/04 03:20:38;;;;;;;4.95;2.33;;;22.20;99.90;;;;;;6185285;23;20002;-72
2023/08/04 03:23:05;;;;;;;9.10;1.95;;;22.20;99.90;;;;;;6184956;23;20032;-73
2023/08/04 03:25:31;;;;;;;3.40;2.10;;;22.20;99.90;;;;;;6184981;23;20001;-73
2023/08/04 03:27:57;;;;;;;3.58;2.03;;;22.20;99.90;;;;;;6184905;23;20040;-73
2023/08/04 03:30:22;;;;;;;3.03;1.73;;;22.20;99.90;;;;;;6185095;23;20425;-73
2023/08/04 03:32:48;;;;;;;4.15;2.03;;;22.30;99.90;;;;;;6184121;23;20001;-73
2023/08/04 03:35:17;;;;;;;6.07;2.75;;;22.30;99.90;;;;;;6185018;23;20003;-73
2023/08/04 03:37:42;;;;;;;4.97;1.90;;;22.20;99.90;;;;;;6185233;23;20485;-73
2023/08/04 03:40:09;;;;;;;4.45;2.50;;;22.20;99.90;;;;;;6182960;23;20032;-72
2023/08/04 03:42:38;;;;;;;10.30;2.35;;;22.20;99.90;;;;;;6183528;23;20001;-73
2023/08/04 03:45:08;;;;;;;4.57;2.70;;;22.20;99.90;;;;;;6184694;23;20369;-73
2023/08/04 03:47:34;;;;;;;5.45;2.58;;;22.10;99.90;;;;;;6185250;23;20283;-73
2023/08/04 03:50:02;;;;;;;8.32;2.53;;;22.10;99.90;;;;;;6184644;23;20005;-73
2023/08/04 03:52:27;;;;;;;4.28;2.03;;;22.10;99.90;;;;;;6184768;23;20437;-73
2023/08/04 03:54:53;;;;;;;2.45;2.10;;;22.10;99.90;;;;;;6183802;23;20036;-73
2023/08/04 03:57:19;;;;;;;3.08;2.03;;;22.00;99.90;;;;;;6182460;23;20001;-73
2023/08/04 03:59:44;;;;;;;6.22;2.10;;;22.00;99.90;;;;;;6182331;23;20455;-73
2023/08/04 04:02:10;;;;;;;5.28;2.08;;;21.90;99.90;;;;;;6183876;23;20005;-73
2023/08/04 04:04:36;;;;;;;6.90;2.15;;;21.80;99.90;;;;;;6184131;23;20005;-73
2023/08/04 04:07:01;;;;;;;4.18;2.40;;;21.80;99.90;;;;;;6184707;23;20008;-73
2023/08/04 04:09:27;;;;;;;4.35;2.22;;;21.90;99.90;;;;;;6184380;23;20487;-73
2023/08/04 04:11:53;;;;;;;2.83;2.45;;;21.80;99.90;;;;;;6184585;23;20005;-73
2023/08/04 04:14:18;;;;;;;5.30;2.42;;;21.90;99.90;;;;;;6184357;23;19997;-73
2023/08/04 04:16:44;;;;;;;5.15;2.08;;;21.80;99.90;;;;;;6184557;23;19997;-73
2023/08/04 04:19:10;;;;;;;5.00;2.60;;;21.70;99.90;;;;;;6184506;23;20051;-73
2023/08/04 04:21:37;;;;;;;3.88;2.40;;;21.60;99.90;;;;;;6184852;23;19997;-73
2023/08/04 04:24:03;;;;;;;10.77;2.20;;;21.60;99.90;;;;;;6182652;23;20016;-73
2023/08/04 04:26:29;;;;;;;7.70;2.50;;;21.70;99.90;;;;;;6184561;23;20005;-73
2023/08/04 04:28:54;;;;;;;2.65;2.42;;;21.70;99.90;;;;;;6182801;23;20005;-73
2023/08/04 04:31:20;;;;;;;3.10;1.95;;;21.80;99.90;;;;;;6183147;23;20016;-74
2023/08/04 04:33:46;;;;;;;3.20;2.20;;;21.80;99.90;;;;;;6182834;23;20381;-73
2023/08/04 04:36:11;;;;;;;3.17;2.08;;;21.80;99.90;;;;;;6184534;23;20004;-73
2023/08/04 04:38:37;;;;;;;4.47;2.40;;;21.80;99.90;;;;;;6184267;23;20382;-73
2023/08/04 04:41:03;;;;;;;4.70;2.42;;;21.80;99.90;;;;;;6184596;23;20001;-73
2023/08/04 04:43:30;;;;;;;2.47;2.15;;;21.80;99.90;;;;;;6184244;23;20337;-73
2023/08/04 04:45:56;;;;;;;5.50;2.30;;;21.70;99.90;;;;;;6184548;23;20381;-73
2023/08/04 04:48:23;;;;;;;7.15;2.20;;;21.70;99.90;;;;;;6184296;23;20005;-73
2023/08/04 04:50:52;;;;;;;3.55;2.13;;;21.70;99.90;;;;;;6184647;23;20586;-73
2023/08/04 04:53:18;;;;;;;6.85;2.42;;;21.70;99.90;;;;;;6183782;23;20031;-73
2023/08/04 04:55:44;;;;;;;2.92;2.00;;;21.70;99.90;;;;;;6184392;23;20080;-73
2023/08/04 04:58:12;;;;;;;3.67;2.30;;;21.70;99.90;;;;;;6184221;23;20025;-73
2023/08/04 05:00:38;;;;;;;5.45;2.08;;;21.60;99.90;;;;;;6184698;23;20136;-73
2023/08/04 05:03:06;;;;;;;4.13;2.45;;;21.60;99.90;;;;;;6184099;23;20015;-73
2023/08/04 05:05:32;;;;;;;3.38;2.35;;;21.60;99.90;;;;;;6184568;23;20001;-73
2023/08/04 05:07:58;;;;;;;4.25;2.42;;;21.70;99.90;;;;;;6184637;23;20549;-73
2023/08/04 05:10:25;;;;;;;3.95;1.88;;;21.60;99.90;;;;;;6184408;23;20047;-74
2023/08/04 05:12:51;;;;;;;3.63;2.17;;;21.70;99.90;;;;;;6184099;23;20005;-74
2023/08/04 05:15:16;;;;;;;5.38;2.38;;;21.80;99.90;;;;;;6185071;23;20329;-73
2023/08/04 05:17:42;;;;;;;3.95;2.03;;;21.80;99.90;;;;;;6186612;23;19997;-73
2023/08/04 05:20:09;;;;;;;3.88;2.00;;;21.90;99.90;;;;;;6186140;23;20004;-74
2023/08/04 05:22:34;;;;;;;3.63;2.10;;;21.90;99.90;;;;;;6186639;23;20005;-74
2023/08/04 05:25:00;;;;;;;3.67;2.13;;;21.90;99.90;;;;;;6185841;23;20302;-73
2023/08/04 05:27:26;;;;;;;3.00;1.63;;;22.00;99.90;;;;;;6184336;23;20017;-73
2023/08/04 05:29:51;;;;;;;3.70;2.20;;;22.00;99.90;;;;;;6186037;23;20009;-73
2023/08/04 05:32:17;;;;;;;3.50;2.17;;;22.10;99.90;;;;;;6186327;23;20040;-72
2023/08/04 05:34:43;;;;;;;3.22;1.80;;;22.20;99.90;;;;;;6186087;23;19997;-73
2023/08/04 05:37:08;;;;;;;6.15;2.20;;;22.30;99.90;;;;;;6186123;23;20027;-73
2023/08/04 05:39:34;;;;;;;3.63;2.40;;;22.30;99.90;;;;;;6185910;23;20001;-72
2023/08/04 05:42:00;;;;;;;3.97;1.73;;;22.40;99.90;;;;;;6186011;23;20027;-73
2023/08/04 05:44:27;;;;;;;5.22;2.17;;;22.40;99.90;;;;;;6184102;23;20014;-73
2023/08/04 05:46:53;;;;;;;5.00;1.95;;;22.40;99.90;;;;;;6186282;23;19998;-73
2023/08/04 05:49:19;;;;;;;6.78;1.90;;;22.50;99.90;;;;;;6185959;23;20001;-73
2023/08/04 05:51:46;;;;;;;2.30;2.05;;;22.60;99.90;;;;;;6186039;23;20329;-73
2023/08/04 05:54:11;;;;;;;2.60;1.55;;;22.70;99.90;;;;;;6183811;23;20005;-72
2023/08/04 05:56:40;;;;;;;4.57;2.22;;;22.70;99.90;;;;;;6186050;23;20005;-73
2023/08/04 05:59:06;;;;;;;3.50;2.30;;;22.80;99.90;;;;;;6184176;23;20012;-73
2023/08/04 06:01:33;;;;;;;2.60;1.63;;;22.80;99.90;;;;;;6185695;23;20001;-73
2023/08/04 06:03:59;;;;;;;5.68;1.77;;;22.90;99.90;;;;;;6185897;23;20499;-73
2023/08/04 06:06:24;;;;;;;7.22;2.05;;;23.00;99.90;;;;;;6184402;23;20005;-73
2023/08/04 06:08:50;;;;;;;6.05;2.00;;;23.10;99.90;;;;;;6185439;23;20008;-73
2023/08/04 06:11:16;;;;;;;4.45;2.35;;;23.10;99.90;;;;;;6184238;23;20491;-73
2023/08/04 06:13:42;;;;;;;4.55;1.98;;;23.20;99.90;;;;;;6185730;23;20329;-73
2023/08/04 06:16:07;;;;;;;6.00;1.80;;;23.20;99.90;;;;;;6184411;23;20028;-73
2023/08/04 06:18:33;;;;;;;3.38;2.08;;;23.20;99.90;;;;;;6185729;23;20003;-74
2023/08/04 06:20:59;;;;;;;4.90;2.10;;;23.30;99.90;;;;;;6184237;23;20333;-73
2023/08/04 06:23:24;;;;;;;7.53;2.60;;;23.30;99.90;;;;;;6185314;23;20001;-73
2023/08/04 06:25:50;;;;;;;3.95;1.77;;;23.40;99.90;;;;;;6184112;23;20001;-74
2023/08/04 06:28:16;;;;;;;4.18;1.70;;;23.40;99.90;;;;;;6183640;23;20048;-74
2023/08/04 06:30:42;;;;;;;8.30;2.42;;;23.50;99.90;;;;;;6185837;23;20076;-74
2023/08/04 06:33:08;;;;;;;7.28;2.33;;;23.60;99.90;;;;;;6185335;23;20031;-73
2023/08/04 06:35:34;;;;;;;2.65;2.17;;;23.70;99.90;;;;;;6183899;23;20084;-73
2023/08/04 06:37:59;;;;;;;4.50;1.85;;;23.70;99.90;;;;;;6185599;23;20021;-74
2023/08/04 06:40:26;;;;;;;4.53;2.65;;;23.70;99.90;;;;;;6185299;23;20444;-73
2023/08/04 06:42:53;;;;;;;5.65;1.88;;;23.80;99.90;;;;;;6185120;23;20005;-76
2023/08/04 06:45:18;;;;;;;5.70;1.80;;;23.90;99.90;;;;;;6185802;23;20026;-76
2023/08/04 06:47:44;;;;;;;5.55;2.10;;;24.00;99.90;;;;;;6186028;23;20013;-76
2023/08/04 06:50:10;;;;;;;3.50;2.10;;;24.00;99.90;;;;;;6184105;23;20009;-76
2023/08/04 06:52:36;;;;;;;2.88;1.52;;;24.00;99.90;;;;;;6185560;23;20028;-77
2023/08/04 06:55:02;;;;;;;2.22;1.75;;;24.10;99.90;;;;;;6185657;23;20001;-76
2023/08/04 06:57:27;;;;;;;5.85;1.63;;;24.20;99.90;;;;;;6185884;23;20035;-76
2023/08/04 06:59:53;;;;;;;5.03;2.10;;;24.20;99.90;;;;;;6185820;23;20310;-76
2023/08/04 07:02:19;;;;;;;4.30;1.70;;;24.30;99.90;;;;;;6184396;23;20009;-76
2023/08/04 07:04:45;;;;;;;2.65;1.65;;;24.40;99.90;;;;;;6186205;23;20005;-76
2023/08/04 07:07:10;;;;;;;5.30;2.38;;;24.40;99.90;;;;;;6185805;23;20012;-76
2023/08/04 07:09:36;;;;;;;6.15;2.40;;;24.40;99.90;;;;;;6185552;23;20001;-76
2023/08/04 07:12:02;;;;;;;2.47;1.90;;;24.50;99.90;;;;;;6183989;23;20015;-75
2023/08/04 07:14:28;;;;;;;6.05;2.88;;;24.40;99.90;;;;;;6185200;23;20056;-76
2023/08/04 07:16:54;;;;;;;7.07;1.92;;;24.40;99.90;;;;;;6184552;23;20005;-76
2023/08/04 07:19:22;;;;;;;4.90;1.67;;;24.40;99.90;;;;;;6184317;23;20001;-76
2023/08/04 07:21:48;;;;;;;7.05;2.33;;;24.40;99.90;;;;;;6182532;23;20089;-76
2023/08/04 07:24:14;;;;;;;3.03;1.77;;;24.50;99.90;;;;;;6182398;23;20032;-76
2023/08/04 07:26:39;;;;;;;6.70;1.90;;;24.50;99.90;;;;;;6183078;23;20005;-76
2023/08/04 07:29:05;;;;;;;6.95;2.55;;;24.50;99.90;;;;;;6183326;23;20001;-76
2023/08/04 07:31:33;;;;;;;6.15;2.55;;;24.50;99.90;;;;;;6179316;23;20272;-76
2023/08/04 07:34:00;;;;;;;5.13;1.90;;;24.50;99.90;;;;;;6178958;23;20457;-76
2023/08/04 07:36:26;;;;;;;4.07;2.00;;;24.50;99.90;;;;;;6180090;23;20080;-76
2023/08/04 07:38:51;;;;;;;5.22;1.83;;;24.60;99.90;;;;;;6180609;23;20076;-76
2023/08/04 07:41:22;;;;;;;2.35;1.90;;;24.60;99.90;;;;;;6179928;23;20464;-76
2023/08/04 07:43:48;;;;;;;2.95;1.90;;;24.60;99.90;;;;;;6181890;23;20013;-76
2023/08/04 07:46:24;;;;;;;2.40;1.52;;;24.60;99.90;;;;;;6184044;23;20079;-76
2023/08/04 07:48:51;;;;;;;3.08;1.65;;;24.50;99.90;;;;;;6183889;23;20055;-76
2023/08/04 07:51:17;;;;;;;3.00;1.90;;;24.60;99.90;;;;;;6184157;23;20000;-76
2023/08/04 07:53:43;;;;;;;4.25;1.80;;;24.60;99.90;;;;;;6183539;23;20012;-76
2023/08/04 07:56:09;;;;;;;7.15;2.50;;;24.60;99.90;;;;;;6184129;23;20071;-76
2023/08/04 07:58:35;;;;;;;5.22;2.00;;;24.70;99.90;;;;;;6183936;23;19997;-76
2023/08/04 08:01:03;;;;;;;4.80;2.05;;;24.80;99.90;;;;;;6182444;23;20009;-76
2023/08/04 08:03:31;;;;;;;5.05;2.10;;;24.80;99.90;;;;;;6183646;23;20467;-76
2023/08/04 08:05:56;;;;;;;6.68;1.80;;;24.90;99.90;;;;;;6184045;23;20084;-76
2023/08/04 08:08:22;;;;;;;3.65;1.70;;;24.90;99.90;;;;;;6183920;23;20346;-76
2023/08/04 08:10:48;;;;;;;2.33;1.80;;;24.90;99.90;;;;;;6183694;23;20032;-76
2023/08/04 08:13:13;;;;;;;1.95;1.38;;;24.90;99.90;;;;;;6183703;23;20188;-76
2023/08/04 08:15:39;;;;;;;3.47;1.85;;;24.90;99.90;;;;;;6183897;23;19997;-76
2023/08/04 08:18:08;;;;;;;5.53;1.98;;;25.00;99.90;;;;;;6183571;23;20008;-76
2023/08/04 08:20:34;;;;;;;2.10;1.52;;;25.00;99.90;;;;;;6183970;23;20021;-76
2023/08/04 08:22:59;;;;;;;2.42;1.67;;;25.00;99.90;;;;;;6183607;23;20012;-76
2023/08/04 08:25:25;;;;;;;7.13;1.80;;;25.00;99.90;;;;;;6183604;23;20008;-76
2023/08/04 08:27:51;;;;;;;5.13;2.08;;;25.10;99.90;;;;;;6183609;23;20393;-76
2023/08/04 08:30:17;;;;;;;2.95;1.75;;;25.20;99.90;;;;;;6183849;23;20084;-76
2023/08/04 08:32:43;;;;;;;5.45;1.63;;;25.10;99.90;;;;;;6183500;23;20028;-76
2023/08/04 08:35:09;;;;;;;7.45;1.70;;;25.20;99.90;;;;;;6183263;23;20380;-76
2023/08/04 08:37:34;;;;;;;3.42;1.63;;;25.20;99.90;;;;;;6183784;23;20005;-76
2023/08/04 08:40:00;;;;;;;4.13;2.03;;;25.20;99.90;;;;;;6183343;23;20000;-75
2023/08/04 08:42:26;;;;;;;2.67;1.52;;;25.20;99.90;;;;;;6183703;23;20001;-76
2023/08/04 08:44:51;;;;;;;1.85;1.30;;;25.20;99.90;;;;;;6183477;23;20005;-76
2023/08/04 08:47:20;;;;;;;3.65;1.92;;;25.10;99.90;;;;;;6183710;23;20066;-76
2023/08/04 08:49:47;;;;;;;6.03;2.53;;;25.10;99.90;;;;;;6183267;23;20032;-76
2023/08/04 08:52:13;;;;;;;5.10;2.00;;;25.20;99.90;;;;;;6185654;23;20001;-76
2023/08/04 08:54:40;;;;;;;3.55;1.85;;;25.20;99.90;;;;;;6185414;23;20384;-76
2023/08/04 08:57:06;;;;;;;4.45;1.80;;;25.20;99.90;;;;;;6185345;23;20088;-76
2023/08/04 08:59:32;;;;;;;2.08;1.45;;;25.20;99.90;;;;;;6185543;23;20006;-76
2023/08/04 09:02:00;;;;;;;4.95;1.63;;;25.10;99.90;;;;;;6185516;23;20001;-76
2023/08/04 09:04:27;;;;;;;2.75;1.67;;;25.10;99.90;;;;;;6185480;23;20060;-76
2023/08/04 09:06:56;;;;;;;3.38;1.65;;;25.20;99.90;;;;;;6185707;23;19997;-76
2023/08/04 09:09:22;;;;;;;4.85;1.75;;;25.30;99.90;;;;;;6185300;23;20008;-76
2023/08/04 09:11:48;;;;;;;3.80;1.77;;;25.30;99.90;;;;;;6185404;23;20345;-76
2023/08/04 09:14:15;;;;;;;2.88;1.90;;;25.30;99.90;;;;;;6183794;23;20144;-76
2023/08/04 09:16:42;;;;;;;4.75;1.55;;;25.30;99.90;;;;;;6185361;23;20002;-76
2023/08/04 09:19:09;;;;;;;2.80;1.70;;;25.30;99.90;;;;;;6185423;23;20008;-76
2023/08/04 09:21:36;;;;;;;5.25;1.50;;;25.30;99.90;;;;;;6185428;23;20333;-76
2023/08/04 09:24:03;;;;;;;6.22;1.65;;;25.30;99.90;;;;;;6185084;23;20004;-76
2023/08/04 09:26:41;;;;;;;3.65;1.70;;;25.30;99.90;;;;;;6185279;23;20033;-76
2023/08/04 09:29:08;;;;;;;6.55;2.30;;;25.30;99.90;;;;;;6185252;23;20005;-76
2023/08/04 09:31:41;;;;;;;5.25;2.38;;;25.30;99.90;;;;;;6185173;23;20005;-76
2023/08/04 09:34:08;;;;;;;5.40;2.20;;;25.40;99.90;;;;;;6184818;23;20005;-76
2023/08/04 09:36:47;;;;;;;6.72;2.33;;;25.40;99.90;;;;;;6185367;23;20048;-76
2023/08/04 09:39:14;;;;;;;2.72;2.28;;;25.40;99.90;;;;;;6185191;23;20001;-76
2023/08/04 09:41:45;;;;;;;4.85;1.73;;;25.40;99.90;;;;;;6185195;23;20005;-76
2023/08/04 09:44:11;;;;;;;3.60;2.05;;;25.30;99.90;;;;;;6185136;23;20256;-76
2023/08/04 09:46:52;;;;;;;7.38;2.10;;;25.30;99.90;;;;;;6183566;23;20005;-76
2023/08/04 09:49:21;;;;;;;2.70;1.92;;;25.30;99.90;;;;;;6185087;23;20039;-76
2023/08/04 09:51:50;;;;;;;5.47;1.70;;;25.30;99.90;;;;;;6184955;23;20076;-76
2023/08/04 09:54:16;;;;;;;5.40;1.98;;;25.30;99.90;;;;;;6184875;23;20004;-76
2023/08/04 09:56:43;;;;;;;5.25;2.30;;;25.30;99.90;;;;;;6183588;23;20008;-76
2023/08/04 09:59:11;;;;;;;3.33;1.80;;;25.40;99.90;;;;;;6184863;23;20001;-76
2023/08/04 10:01:39;;;;;;;3.25;1.77;;;25.50;99.90;;;;;;6184722;23;20476;-76
2023/08/04 10:04:06;;;;;;;4.50;1.77;;;25.60;99.90;;;;;;6184919;23;20001;-76
2023/08/04 10:06:33;;;;;;;4.70;1.98;;;25.60;99.90;;;;;;6185064;23;20314;-76
2023/08/04 10:08:59;;;;;;;1.70;1.60;;;25.70;99.90;;;;;;6184614;23;20029;-76
2023/08/04 10:11:24;;;;;;;5.00;2.13;;;25.70;99.90;;;;;;6184853;23;20008;-76
2023/08/04 10:13:56;;;;;;;3.85;1.73;;;25.70;99.90;;;;;;6184702;23;20091;-76
2023/08/04 10:16:41;;;;;;;3.50;1.92;;;25.70;99.90;;;;;;6183263;23;20005;-76
2023/08/04 10:19:07;;;;;;;6.78;1.77;;;25.70;99.90;;;;;;6183005;23;20012;-76
2023/08/04 10:21:34;;;;;;;4.05;1.95;;;25.80;99.90;;;;;;6184823;23;20080;-76
2023/08/04 10:24:02;;;;;;;2.47;1.60;;;25.90;99.90;;;;;;6184630;23;20028;-76
2023/08/04 10:26:31;;;;;;;2.05;1.60;;;25.90;99.90;;;;;;6184904;23;20052;-76
2023/08/04 10:29:09;;;;;;;4.63;1.98;;;26.00;99.90;;;;;;6154973;23;20018;-76
2023/08/04 10:31:52;;;;;;;4.82;1.95;;;26.10;99.90;;;;;;6154773;23;20012;-76
2023/08/04 10:34:18;;;;;;;3.38;2.10;;;26.20;99.90;;;;;;6154664;23;20353;-76
2023/08/04 10:37:04;;;;;;;3.20;2.10;;;26.20;99.90;;;;;;6128771;23;20001;-76
2023/08/04 10:39:44;;;;;;;4.40;1.70;;;26.20;99.90;;;;;;6154651;23;20081;-76
2023/08/04 10:42:14;;;;;;;12.40;2.33;;;26.30;99.90;;;;;;6128627;23;20001;-76
2023/08/04 10:44:49;;;;;;;3.03;1.90;;;26.20;99.90;;;;;;6154868;23;20001;-76
2023/08/04 10:47:15;;;;;;;3.95;2.08;;;26.30;99.90;;;;;;6128623;23;20449;-76
2023/08/04 10:49:41;;;;;;;3.83;1.90;;;26.30;99.90;;;;;;6154668;23;20005;-76
2023/08/04 10:52:07;;;;;;;4.90;2.30;;;26.30;99.90;;;;;;6128472;23;20504;-76
2023/08/04 10:54:32;;;;;;;8.65;2.40;;;26.30;99.90;;;;;;6154459;23;20002;-76
2023/08/04 10:56:58;;;;;;;3.03;2.20;;;26.30;99.90;;;;;;6154766;23;20392;-76
2023/08/04 10:59:24;;;;;;;5.82;2.40;;;26.40;99.90;;;;;;6154543;23;20005;-76
2023/08/04 11:01:51;;;;;;;7.82;2.70;;;26.50;99.90;;;;;;6154614;23;20006;-76
2023/08/04 11:04:17;;;;;;;14.93;2.42;;;26.60;99.90;;;;;;6154701;23;20056;-76
2023/08/04 11:06:44;;;;;;;6.40;2.38;;;26.60;99.90;;;;;;6128255;23;20446;-76
2023/08/04 11:09:11;;;;;;;11.13;3.47;;;26.60;99.90;;;;;;6154268;23;20009;-76
2023/08/04 11:11:37;;;;;;;5.03;2.08;;;26.70;99.90;;;;;;6154396;23;20056;-76
2023/08/04 11:14:07;;;;;;;6.53;2.30;;;26.80;99.90;;;;;;6154034;23;20010;-76
2023/08/04 11:16:35;;;;;;;4.03;2.83;;;26.90;99.90;;;;;;6154432;23;20021;-76
2023/08/04 11:19:06;;;;;;;8.95;3.03;;;26.90;99.90;;;;;;6154430;23;20077;-76
2023/08/04 11:21:31;;;;;;;10.70;2.70;;;26.90;99.90;;;;;;6154405;23;20333;-76
2023/08/04 11:23:57;;;;;;;7.57;2.72;;;27.00;99.90;;;;;;6154371;23;20105;-76
2023/08/04 11:26:23;;;;;;;4.63;2.22;;;27.10;99.90;;;;;;6154445;23;20005;-76
2023/08/04 11:28:48;;;;;;;5.45;2.58;;;27.20;99.90;;;;;;6183076;23;20045;-76
2023/08/04 11:31:20;;;;;;;7.65;2.55;;;27.30;99.90;;;;;;6184338;23;20001;-76
2023/08/04 11:33:45;;;;;;;6.72;2.95;;;27.30;99.90;;;;;;6183828;23;20001;-76
2023/08/04 11:36:11;;;;;;;5.97;2.70;;;27.40;99.90;;;;;;6184097;23;20004;-76
2023/08/04 11:38:38;;;;;;;7.90;3.63;;;27.40;99.90;;;;;;6185688;23;20020;-76
2023/08/04 11:41:08;;;;;;;5.45;2.97;;;27.40;99.90;;;;;;6184814;23;20001;-76
2023/08/04 11:43:34;;;;;;;6.47;2.85;;;27.40;99.90;;;;;;6183737;23;20011;-76
2023/08/04 11:46:03;;;;;;;7.25;2.63;;;27.30;99.90;;;;;;6185652;23;20080;-76
2023/08/04 11:48:29;;;;;;;9.15;2.70;;;27.30;99.90;;;;;;6185489;23;20016;-76
2023/08/04 11:50:56;;;;;;;6.07;2.63;;;27.30;99.90;;;;;;6185705;23;20001;-76
2023/08/04 11:53:22;;;;;;;6.38;2.70;;;27.40;99.90;;;;;;6185095;23;20083;-76
2023/08/04 11:55:59;;;;;;;4.70;2.72;;;27.40;99.90;;;;;;6185456;23;20405;-76
2023/08/04 11:58:33;;;;;;;8.43;2.40;;;27.60;99.90;;;;;;6185664;23;19997;-76
2023/08/04 12:00:59;;;;;;;8.23;2.78;;;27.70;99.90;;;;;;6182778;23;20796;-76
2023/08/04 12:03:41;;;;;;;5.63;2.33;;;27.80;99.90;;;;;;6179613;23;20005;-76
2023/08/04 12:06:15;;;;;;;5.07;2.53;;;27.90;99.90;;;;;;6181824;23;20677;-76
2023/08/04 12:08:53;;;;;;;8.43;2.67;;;27.90;99.90;;;;;;6181329;23;20009;-76
2023/08/04 12:11:22;;;;;;;7.53;2.90;;;27.80;99.90;;;;;;6182848;23;20011;-77
2023/08/04 12:13:49;;;;;;;3.75;2.50;;;27.80;99.90;;;;;;6181445;23;20015;-78
2023/08/04 12:16:16;;;;;;;6.07;2.88;;;27.90;99.90;;;;;;6180206;23;20001;-77
2023/08/04 12:18:42;;;;;;;7.60;2.67;;;28.00;99.90;;;;;;6180080;23;20071;-77
2023/08/04 12:21:11;;;;;;;5.35;2.50;;;28.10;99.90;;;;;;6182908;23;20425;-76
2023/08/04 12:23:37;;;;;;;7.25;2.58;;;28.20;99.90;;;;;;6181520;23;20001;-77
2023/08/04 12:26:04;;;;;;;9.55;2.75;;;28.20;99.90;;;;;;6181647;23;20011;-77
2023/08/04 12:28:30;;;;;;;7.03;2.03;;;28.40;99.90;;;;;;6182321;23;20152;-78
2023/08/04 12:30:55;;;;;;;5.95;2.85;;;28.60;99.90;;;;;;6181907;23;20001;-75
2023/08/04 12:33:21;;;;;;;5.15;2.58;;;28.80;99.90;;;;;;6181431;23;20437;-76
2023/08/04 12:35:47;;;;;;;8.63;2.58;;;28.90;99.90;;;;;;6180714;23;19998;-78
2023/08/04 12:38:16;;;;;;;3.67;2.03;;;28.90;99.90;;;;;;6180467;23;20001;-77
2023/08/04 12:40:42;;;;;;;2.42;1.85;;;29.00;99.90;;;;;;6180268;23;20001;-76
2023/08/04 12:43:08;;;;;;;4.60;2.03;;;28.90;94.60;;;;;;6180453;23;20742;-77
2023/08/04 12:45:35;;;;;;;2.50;2.30;;;28.90;96.70;;;;;;6180209;23;20025;-77